sensor_id;sensor_type;location;lat;lon;timestamp;pressure;altitude;pressure_sealevel;temperature;humidity
19150;BME280;9707;49.158;8.632;2023-03-26T00:00:43;99924.28;;;20.39;35.46
19150;BME280;9707;49.158;8.632;2023-03-26T00:03:10;99928.13;;;20.36;35.72
19150;BME280;9707;49.158;8.632;2023-03-26T00:05:37;99923.69;;;20.35;35.84
19150;BME280;9707;49.158;8.632;2023-03-26T00:08:02;99922.69;;;20.36;36.00
19150;BME280;9707;49.158;8.632;2023-03-26T00:10:28;99925.28;;;20.38;36.24
19150;BME280;9707;49.158;8.632;2023-03-26T00:12:53;99916.03;;;20.40;36.12
19150;BME280;9707;49.158;8.632;2023-03-26T00:15:18;99915.91;;;20.42;35.99
19150;BME280;9707;49.158;8.632;2023-03-26T00:17:43;99917.63;;;20.43;36.25
19150;BME280;9707;49.158;8.632;2023-03-26T00:20:11;99918.34;;;20.45;36.11
19150;BME280;9707;49.158;8.632;2023-03-26T00:22:37;99916.50;;;20.45;36.12
19150;BME280;9707;49.158;8.632;2023-03-26T00:25:02;99913.66;;;20.47;36.26
19150;BME280;9707;49.158;8.632;2023-03-26T00:27:27;99911.97;;;20.46;36.46
19150;BME280;9707;49.158;8.632;2023-03-26T00:29:53;99912.81;;;20.46;36.41
19150;BME280;9707;49.158;8.632;2023-03-26T00:32:20;99907.25;;;20.48;36.18
19150;BME280;9707;49.158;8.632;2023-03-26T00:34:46;99905.56;;;20.47;36.25
19150;BME280;9707;49.158;8.632;2023-03-26T00:37:11;99908.25;;;20.47;36.29
19150;BME280;9707;49.158;8.632;2023-03-26T00:39:36;99893.75;;;20.48;36.13
19150;BME280;9707;49.158;8.632;2023-03-26T00:42:03;99899.28;;;20.46;36.34
19150;BME280;9707;49.158;8.632;2023-03-26T00:44:32;99900.84;;;20.49;36.11
19150;BME280;9707;49.158;8.632;2023-03-26T00:46:57;99890.91;;;20.49;36.05
19150;BME280;9707;49.158;8.632;2023-03-26T00:49:23;99887.19;;;20.50;36.19
19150;BME280;9707;49.158;8.632;2023-03-26T00:51:50;99875.50;;;20.50;35.84
19150;BME280;9707;49.158;8.632;2023-03-26T00:54:15;99880.91;;;20.50;35.77
19150;BME280;9707;49.158;8.632;2023-03-26T00:56:41;99875.50;;;20.50;35.79
19150;BME280;9707;49.158;8.632;2023-03-26T00:59:06;99876.50;;;20.49;35.89
19150;BME280;9707;49.158;8.632;2023-03-26T01:01:33;99869.25;;;20.49;35.83
19150;BME280;9707;49.158;8.632;2023-03-26T01:04:26;99857.56;;;20.49;35.86
19150;BME280;9707;49.158;8.632;2023-03-26T01:06:54;99844.91;;;20.49;36.01
19150;BME280;9707;49.158;8.632;2023-03-26T01:09:22;99853.03;;;20.49;36.00
19150;BME280;9707;49.158;8.632;2023-03-26T01:11:50;99849.44;;;20.49;35.92
19150;BME280;9707;49.158;8.632;2023-03-26T01:14:19;99848.63;;;20.48;35.99
19150;BME280;9707;49.158;8.632;2023-03-26T01:16:58;99846.03;;;20.47;35.97
19150;BME280;9707;49.158;8.632;2023-03-26T01:22:34;99837.91;;;20.47;35.93
19150;BME280;9707;49.158;8.632;2023-03-26T01:25:00;99820.94;;;20.45;36.02
19150;BME280;9707;49.158;8.632;2023-03-26T01:27:34;99821.69;;;20.47;36.21
19150;BME280;9707;49.158;8.632;2023-03-26T01:33:13;99818.25;;;20.45;36.00
19150;BME280;9707;49.158;8.632;2023-03-26T01:35:45;99823.94;;;20.42;36.14
19150;BME280;9707;49.158;8.632;2023-03-26T01:38:24;99814.81;;;20.43;36.07
19150;BME280;9707;49.158;8.632;2023-03-26T01:41:20;99815.69;;;20.43;36.12
19150;BME280;9707;49.158;8.632;2023-03-26T01:43:56;99811.41;;;20.41;36.01
19150;BME280;9707;49.158;8.632;2023-03-26T01:46:26;99812.25;;;20.41;36.19
19150;BME280;9707;49.158;8.632;2023-03-26T01:48:51;99811.41;;;20.41;35.99
19150;BME280;9707;49.158;8.632;2023-03-26T01:51:49;99798.84;;;20.40;36.15
19150;BME280;9707;49.158;8.632;2023-03-26T01:54:23;99793.44;;;20.40;36.16
19150;BME280;9707;49.158;8.632;2023-03-26T01:57:07;99782.63;;;20.40;35.95
19150;BME280;9707;49.158;8.632;2023-03-26T01:59:59;99778.22;;;20.39;36.13
19150;BME280;9707;49.158;8.632;2023-03-26T02:02:44;99773.78;;;20.38;36.24
19150;BME280;9707;49.158;8.632;2023-03-26T02:05:39;99772.78;;;20.39;35.89
19150;BME280;9707;49.158;8.632;2023-03-26T02:08:50;99772.09;;;20.37;35.90
19150;BME280;9707;49.158;8.632;2023-03-26T02:11:01;99760.53;;;20.35;35.85
19150;BME280;9707;49.158;8.632;2023-03-26T02:13:28;99757.81;;;20.35;35.92
19150;BME280;9707;49.158;8.632;2023-03-26T02:15:57;99752.56;;;20.33;35.83
19150;BME280;9707;49.158;8.632;2023-03-26T02:18:22;99742.72;;;20.32;35.69
19150;BME280;9707;49.158;8.632;2023-03-26T02:20:51;99740.00;;;20.32;35.69
19150;BME280;9707;49.158;8.632;2023-03-26T02:23:21;99736.47;;;20.32;35.58
19150;BME280;9707;49.158;8.632;2023-03-26T02:25:46;99732.91;;;20.31;35.76
19150;BME280;9707;49.158;8.632;2023-03-26T02:28:12;99730.19;;;20.31;35.60
19150;BME280;9707;49.158;8.632;2023-03-26T02:30:37;99723.94;;;20.31;35.74
19150;BME280;9707;49.158;8.632;2023-03-26T02:33:03;99721.25;;;20.31;35.74
19150;BME280;9707;49.158;8.632;2023-03-26T02:35:29;99720.38;;;20.30;35.93
19150;BME280;9707;49.158;8.632;2023-03-26T02:37:54;99714.97;;;20.30;35.94
19150;BME280;9707;49.158;8.632;2023-03-26T02:40:20;99715.84;;;20.31;35.79
19150;BME280;9707;49.158;8.632;2023-03-26T02:42:46;99704.03;;;20.32;35.94
19150;BME280;9707;49.158;8.632;2023-03-26T02:45:12;99697.59;;;20.33;35.69
19150;BME280;9707;49.158;8.632;2023-03-26T02:47:37;99697.75;;;20.31;35.78
19150;BME280;9707;49.158;8.632;2023-03-26T02:50:03;99690.50;;;20.32;36.06
19150;BME280;9707;49.158;8.632;2023-03-26T02:52:28;99683.22;;;20.32;35.75
19150;BME280;9707;49.158;8.632;2023-03-26T02:54:54;99683.22;;;20.32;36.00
19150;BME280;9707;49.158;8.632;2023-03-26T02:57:19;99686.91;;;20.31;36.23
19150;BME280;9707;49.158;8.632;2023-03-26T02:59:45;99683.38;;;20.31;36.00
19150;BME280;9707;49.158;8.632;2023-03-26T03:02:10;99680.69;;;20.31;35.79
19150;BME280;9707;49.158;8.632;2023-03-26T03:04:37;99678.94;;;20.30;35.77
19150;BME280;9707;49.158;8.632;2023-03-26T03:07:02;99686.22;;;20.29;35.68
19150;BME280;9707;49.158;8.632;2023-03-26T03:09:28;99666.41;;;20.29;35.68
19150;BME280;9707;49.158;8.632;2023-03-26T03:11:55;99677.22;;;20.29;35.86
19150;BME280;9707;49.158;8.632;2023-03-26T03:14:21;99672.69;;;20.29;35.94
19150;BME280;9707;49.158;8.632;2023-03-26T03:16:46;99670.13;;;20.28;35.67
19150;BME280;9707;49.158;8.632;2023-03-26T03:19:12;99664.72;;;20.28;35.92
19150;BME280;9707;49.158;8.632;2023-03-26T03:21:37;99655.88;;;20.26;35.75
19150;BME280;9707;49.158;8.632;2023-03-26T03:24:03;99655.88;;;20.26;35.77
19150;BME280;9707;49.158;8.632;2023-03-26T03:26:28;99654.16;;;20.25;35.87
19150;BME280;9707;49.158;8.632;2023-03-26T03:28:55;99647.91;;;20.24;36.23
19150;BME280;9707;49.158;8.632;2023-03-26T03:31:22;99647.78;;;20.26;36.27
19150;BME280;9707;49.158;8.632;2023-03-26T03:33:48;99634.25;;;20.26;36.29
19150;BME280;9707;49.158;8.632;2023-03-26T03:36:15;99634.25;;;20.26;35.85
19150;BME280;9707;49.158;8.632;2023-03-26T03:38:47;99628.84;;;20.26;36.15
19150;BME280;9707;49.158;8.632;2023-03-26T03:41:12;99629.81;;;20.25;36.14
19150;BME280;9707;49.158;8.632;2023-03-26T03:43:38;99624.41;;;20.25;36.08
19150;BME280;9707;49.158;8.632;2023-03-26T03:46:03;99624.41;;;20.25;35.91
19150;BME280;9707;49.158;8.632;2023-03-26T03:48:29;99619.16;;;20.23;36.05
19150;BME280;9707;49.158;8.632;2023-03-26T03:50:55;99619.16;;;20.23;35.83
19150;BME280;9707;49.158;8.632;2023-03-26T03:53:24;99627.13;;;20.25;36.02
19150;BME280;9707;49.158;8.632;2023-03-26T03:55:56;99616.47;;;20.23;36.13
19150;BME280;9707;49.158;8.632;2023-03-26T03:58:23;99618.28;;;20.23;36.04
19150;BME280;9707;49.158;8.632;2023-03-26T04:00:50;99608.47;;;20.22;36.21
19150;BME280;9707;49.158;8.632;2023-03-26T04:03:15;99608.34;;;20.23;36.96
19150;BME280;9707;49.158;8.632;2023-03-26T04:05:42;99596.41;;;20.26;37.11
19150;BME280;9707;49.158;8.632;2023-03-26T04:08:16;99585.28;;;20.29;36.57
19150;BME280;9707;49.158;8.632;2023-03-26T04:10:42;99579.59;;;20.32;36.68
19150;BME280;9707;49.158;8.632;2023-03-26T04:13:08;99573.06;;;20.34;36.62
19150;BME280;9707;49.158;8.632;2023-03-26T04:15:34;99571.19;;;20.35;36.17
19150;BME280;9707;49.158;8.632;2023-03-26T04:18:00;99564.81;;;20.36;36.30
19150;BME280;9707;49.158;8.632;2023-03-26T04:20:25;99551.41;;;20.34;35.80
19150;BME280;9707;49.158;8.632;2023-03-26T04:22:51;99551.41;;;20.34;35.76
19150;BME280;9707;49.158;8.632;2023-03-26T04:25:16;99542.56;;;20.32;35.93
19150;BME280;9707;49.158;8.632;2023-03-26T04:27:42;99540.88;;;20.31;35.91
19150;BME280;9707;49.158;8.632;2023-03-26T04:30:11;99534.63;;;20.31;35.87
19150;BME280;9707;49.158;8.632;2023-03-26T04:32:40;99527.66;;;20.28;36.13
19150;BME280;9707;49.158;8.632;2023-03-26T04:35:07;99526.78;;;20.28;36.09
19150;BME280;9707;49.158;8.632;2023-03-26T04:37:37;99514.97;;;20.29;36.12
19150;BME280;9707;49.158;8.632;2023-03-26T04:40:15;99510.56;;;20.28;35.98
19150;BME280;9707;49.158;8.632;2023-03-26T04:42:40;99506.16;;;20.27;35.99
19150;BME280;9707;49.158;8.632;2023-03-26T04:45:10;99506.16;;;20.27;36.22
19150;BME280;9707;49.158;8.632;2023-03-26T04:47:36;99507.97;;;20.26;36.07
19150;BME280;9707;49.158;8.632;2023-03-26T04:50:03;99495.34;;;20.27;36.16
19150;BME280;9707;49.158;8.632;2023-03-26T04:52:29;99496.34;;;20.26;36.23
19150;BME280;9707;49.158;8.632;2023-03-26T04:54:54;99495.34;;;20.27;36.14
19150;BME280;9707;49.158;8.632;2023-03-26T04:59:49;99498.03;;;20.27;36.16
19150;BME280;9707;49.158;8.632;2023-03-26T05:02:14;99497.03;;;20.28;36.59
19150;BME280;9707;49.158;8.632;2023-03-26T05:04:40;99491.63;;;20.28;36.23
19150;BME280;9707;49.158;8.632;2023-03-26T05:07:09;99491.63;;;20.28;36.68
19150;BME280;9707;49.158;8.632;2023-03-26T05:09:35;99476.97;;;20.30;37.29
19150;BME280;9707;49.158;8.632;2023-03-26T05:12:00;99468.56;;;20.33;36.50
19150;BME280;9707;49.158;8.632;2023-03-26T05:14:25;99468.41;;;20.35;35.89
19150;BME280;9707;49.158;8.632;2023-03-26T05:16:51;99462.16;;;20.34;35.93
19150;BME280;9707;49.158;8.632;2023-03-26T05:19:17;99453.19;;;20.34;37.08
19150;BME280;9707;49.158;8.632;2023-03-26T05:21:42;99463.59;;;20.38;36.92
19150;BME280;9707;49.158;8.632;2023-03-26T05:24:07;99458.88;;;20.40;36.77
19150;BME280;9707;49.158;8.632;2023-03-26T05:26:33;99456.03;;;20.42;36.77
19150;BME280;9707;49.158;8.632;2023-03-26T05:28:59;99454.03;;;20.44;36.79
19150;BME280;9707;49.158;8.632;2023-03-26T05:31:26;99445.78;;;20.45;36.80
19150;BME280;9707;49.158;8.632;2023-03-26T05:33:52;99435.81;;;20.46;36.65
19150;BME280;9707;49.158;8.632;2023-03-26T05:36:18;99435.53;;;20.49;36.38
19150;BME280;9707;49.158;8.632;2023-03-26T05:38:44;99432.69;;;20.50;35.75
19150;BME280;9707;49.158;8.632;2023-03-26T05:41:12;99426.41;;;20.50;36.40
19150;BME280;9707;49.158;8.632;2023-03-26T05:43:37;99412.19;;;20.48;36.58
19150;BME280;9707;49.158;8.632;2023-03-26T05:46:03;99402.91;;;20.50;36.83
19150;BME280;9707;49.158;8.632;2023-03-26T05:48:28;99389.38;;;20.50;36.76
19150;BME280;9707;49.158;8.632;2023-03-26T05:50:55;99375.72;;;20.52;36.78
19150;BME280;9707;49.158;8.632;2023-03-26T05:53:22;99362.91;;;20.54;36.89
19150;BME280;9707;49.158;8.632;2023-03-26T05:55:48;99372.44;;;20.58;36.89
19150;BME280;9707;49.158;8.632;2023-03-26T05:58:22;99368.03;;;20.57;36.53
19150;BME280;9707;49.158;8.632;2023-03-26T06:00:47;99354.50;;;20.57;36.80
19150;BME280;9707;49.158;8.632;2023-03-26T06:03:13;99356.19;;;20.58;36.96
19150;BME280;9707;49.158;8.632;2023-03-26T06:05:40;99356.88;;;20.60;36.97
19150;BME280;9707;49.158;8.632;2023-03-26T06:08:07;99334.97;;;20.63;37.01
19150;BME280;9707;49.158;8.632;2023-03-26T06:10:32;99331.09;;;20.65;37.09
19150;BME280;9707;49.158;8.632;2023-03-26T06:12:57;99326.53;;;20.66;36.79
19150;BME280;9707;49.158;8.632;2023-03-26T06:15:23;99328.94;;;20.69;36.60
19150;BME280;9707;49.158;8.632;2023-03-26T06:17:48;99324.56;;;20.68;35.98
19150;BME280;9707;49.158;8.632;2023-03-26T06:20:14;99330.97;;;20.67;36.38
19150;BME280;9707;49.158;8.632;2023-03-26T06:22:40;99325.56;;;20.67;36.40
19150;BME280;9707;49.158;8.632;2023-03-26T06:25:06;99313.88;;;20.66;36.86
19150;BME280;9707;49.158;8.632;2023-03-26T06:27:31;99313.88;;;20.66;36.59
19150;BME280;9707;49.158;8.632;2023-03-26T06:29:57;99314.72;;;20.67;36.59
19150;BME280;9707;49.158;8.632;2023-03-26T06:32:22;99315.56;;;20.67;37.07
19150;BME280;9707;49.158;8.632;2023-03-26T06:34:47;99293.78;;;20.69;37.13
19150;BME280;9707;49.158;8.632;2023-03-26T06:37:13;99295.47;;;20.70;36.93
19150;BME280;9707;49.158;8.632;2023-03-26T06:39:39;99292.63;;;20.71;36.63
19150;BME280;9707;49.158;8.632;2023-03-26T06:42:05;99297.91;;;20.73;36.30
19150;BME280;9707;49.158;8.632;2023-03-26T06:44:30;99286.34;;;20.71;36.95
19150;BME280;9707;49.158;8.632;2023-03-26T06:46:55;99284.38;;;20.73;37.07
19150;BME280;9707;49.158;8.632;2023-03-26T06:49:20;99277.94;;;20.74;37.07
19150;BME280;9707;49.158;8.632;2023-03-26T06:51:46;99274.22;;;20.75;37.18
19150;BME280;9707;49.158;8.632;2023-03-26T06:54:12;99278.50;;;20.77;37.17
19150;BME280;9707;49.158;8.632;2023-03-26T06:56:37;99277.47;;;20.78;37.15
19150;BME280;9707;49.158;8.632;2023-03-26T06:59:02;99289.03;;;20.80;36.82
19150;BME280;9707;49.158;8.632;2023-03-26T07:01:28;99284.44;;;20.81;36.70
19150;BME280;9707;49.158;8.632;2023-03-26T07:03:53;99281.91;;;20.79;35.85
19150;BME280;9707;49.158;8.632;2023-03-26T07:06:18;99291.00;;;20.78;36.07
19150;BME280;9707;49.158;8.632;2023-03-26T07:08:43;99287.63;;;20.76;35.96
19150;BME280;9707;49.158;8.632;2023-03-26T07:11:09;99279.63;;;20.75;36.92
19150;BME280;9707;49.158;8.632;2023-03-26T07:13:34;99267.66;;;20.77;37.22
19150;BME280;9707;49.158;8.632;2023-03-26T07:16:01;99266.50;;;20.80;36.84
19150;BME280;9707;49.158;8.632;2023-03-26T07:18:26;99265.69;;;20.79;36.30
19150;BME280;9707;49.158;8.632;2023-03-26T07:20:52;99271.22;;;20.78;36.20
19150;BME280;9707;49.158;8.632;2023-03-26T07:23:17;99272.25;;;20.77;36.10
19150;BME280;9707;49.158;8.632;2023-03-26T07:25:46;99269.53;;;20.77;36.26
19150;BME280;9707;49.158;8.632;2023-03-26T07:28:23;99270.50;;;20.76;36.01
19150;BME280;9707;49.158;8.632;2023-03-26T07:30:59;99265.09;;;20.76;36.30
19150;BME280;9707;49.158;8.632;2023-03-26T07:33:30;99264.25;;;20.75;35.97
19150;BME280;9707;49.158;8.632;2023-03-26T07:38:45;99262.56;;;20.74;35.93
19150;BME280;9707;49.158;8.632;2023-03-26T07:46:56;99244.06;;;20.70;36.24
19150;BME280;9707;49.158;8.632;2023-03-26T07:49:23;99244.06;;;20.70;36.37
19150;BME280;9707;49.158;8.632;2023-03-26T07:51:49;99227.81;;;20.70;36.15
19150;BME280;9707;49.158;8.632;2023-03-26T07:54:14;99243.22;;;20.69;35.98
19150;BME280;9707;49.158;8.632;2023-03-26T07:56:48;99238.78;;;20.68;36.21
19150;BME280;9707;49.158;8.632;2023-03-26T07:59:35;99232.53;;;20.68;37.09
19150;BME280;9707;49.158;8.632;2023-03-26T08:05:16;99234.38;;;20.67;36.56
19150;BME280;9707;49.158;8.632;2023-03-26T08:07:54;99219.31;;;20.65;36.73
19150;BME280;9707;49.158;8.632;2023-03-26T08:10:34;99219.16;;;20.66;36.94
19150;BME280;9707;49.158;8.632;2023-03-26T08:15:45;99210.75;;;20.69;36.99
19150;BME280;9707;49.158;8.632;2023-03-26T08:18:34;99199.75;;;20.71;37.07
19150;BME280;9707;49.158;8.632;2023-03-26T08:21:09;99205.16;;;20.71;37.36
19150;BME280;9707;49.158;8.632;2023-03-26T08:23:50;99203.19;;;20.73;37.31
19150;BME280;9707;49.158;8.632;2023-03-26T08:26:58;99202.84;;;20.76;37.19
19150;BME280;9707;49.158;8.632;2023-03-26T08:29:36;99205.56;;;20.76;37.51
19150;BME280;9707;49.158;8.632;2023-03-26T08:32:13;99210.69;;;20.79;37.16
19150;BME280;9707;49.158;8.632;2023-03-26T08:34:39;99214.06;;;20.81;37.33
19150;BME280;9707;49.158;8.632;2023-03-26T08:37:05;99199.56;;;20.82;37.49
19150;BME280;9707;49.158;8.632;2023-03-26T08:39:30;99203.97;;;20.83;37.55
19150;BME280;9707;49.158;8.632;2023-03-26T08:53:54;99194.38;;;20.88;37.33
19150;BME280;9707;49.158;8.632;2023-03-26T08:56:45;99195.22;;;20.89;37.03
19150;BME280;9707;49.158;8.632;2023-03-26T09:05:31;99191.84;;;20.87;37.72
19150;BME280;9707;49.158;8.632;2023-03-26T09:08:21;99185.31;;;20.89;37.75
19150;BME280;9707;49.158;8.632;2023-03-26T09:17:04;99177.56;;;20.94;37.59
19150;BME280;9707;49.158;8.632;2023-03-26T09:25:24;99186.00;;;20.91;37.89
19150;BME280;9707;49.158;8.632;2023-03-26T09:31:05;99186.00;;;20.91;37.43
19150;BME280;9707;49.158;8.632;2023-03-26T09:36:18;99189.56;;;20.92;37.88
19150;BME280;9707;49.158;8.632;2023-03-26T09:39:07;99184.16;;;20.92;37.75
19150;BME280;9707;49.158;8.632;2023-03-26T09:41:43;99171.44;;;20.92;37.88
19150;BME280;9707;49.158;8.632;2023-03-26T09:46:57;99159.59;;;20.93;37.92
19150;BME280;9707;49.158;8.632;2023-03-26T09:58:03;99157.34;;;20.89;37.42
19150;BME280;9707;49.158;8.632;2023-03-26T10:00:48;99163.06;;;20.86;37.59
19150;BME280;9707;49.158;8.632;2023-03-26T10:03:29;99159.50;;;20.85;37.50
19150;BME280;9707;49.158;8.632;2023-03-26T10:11:49;99154.09;;;20.85;37.67
19150;BME280;9707;49.158;8.632;2023-03-26T10:14:23;99156.94;;;20.84;37.76
19150;BME280;9707;49.158;8.632;2023-03-26T10:20:24;99145.13;;;20.85;37.91
19150;BME280;9707;49.158;8.632;2023-03-26T10:25:59;99142.56;;;20.83;38.15
19150;BME280;9707;49.158;8.632;2023-03-26T10:34:06;99124.00;;;20.88;38.81
19150;BME280;9707;49.158;8.632;2023-03-26T10:36:36;99130.00;;;20.92;38.68
19150;BME280;9707;49.158;8.632;2023-03-26T10:45:17;99107.88;;;20.96;38.58
19150;BME280;9707;49.158;8.632;2023-03-26T10:51:04;99094.03;;;20.99;38.16
19150;BME280;9707;49.158;8.632;2023-03-26T10:53:50;99102.31;;;20.98;38.05
19150;BME280;9707;49.158;8.632;2023-03-26T10:56:34;99090.47;;;20.99;36.99
19150;BME280;9707;49.158;8.632;2023-03-26T10:59:05;99097.59;;;21.00;35.76
19150;BME280;9707;49.158;8.632;2023-03-26T11:02:23;99100.63;;;20.97;34.46
19150;BME280;9707;49.158;8.632;2023-03-26T11:04:48;99093.81;;;20.93;34.63
19150;BME280;9707;49.158;8.632;2023-03-26T11:07:34;99102.63;;;20.95;33.50
19150;BME280;9707;49.158;8.632;2023-03-26T11:12:57;99111.06;;;20.92;32.19
19150;BME280;9707;49.158;8.632;2023-03-26T11:15:38;99105.81;;;20.90;32.69
19150;BME280;9707;49.158;8.632;2023-03-26T11:18:20;99110.34;;;20.90;32.52
19150;BME280;9707;49.158;8.632;2023-03-26T11:20:54;99118.31;;;20.91;32.81
19150;BME280;9707;49.158;8.632;2023-03-26T11:23:32;99105.47;;;20.93;32.80
19150;BME280;9707;49.158;8.632;2023-03-26T11:26:04;99137.94;;;20.93;32.16
19150;BME280;9707;49.158;8.632;2023-03-26T11:31:51;99135.69;;;20.89;32.26
19150;BME280;9707;49.158;8.632;2023-03-26T11:34:26;99131.16;;;20.89;32.33
19150;BME280;9707;49.158;8.632;2023-03-26T11:36:55;99143.81;;;20.89;32.05
19150;BME280;9707;49.158;8.632;2023-03-26T11:39:36;99141.09;;;20.89;32.25
19150;BME280;9707;49.158;8.632;2023-03-26T11:42:11;99140.13;;;20.90;31.67
19150;BME280;9707;49.158;8.632;2023-03-26T11:44:53;99136.41;;;20.91;31.38
19150;BME280;9707;49.158;8.632;2023-03-26T11:47:23;99136.41;;;20.91;30.81
19150;BME280;9707;49.158;8.632;2023-03-26T11:49:52;99119.34;;;20.90;30.44
19150;BME280;9707;49.158;8.632;2023-03-26T11:52:19;99139.13;;;20.91;30.00
19150;BME280;9707;49.158;8.632;2023-03-26T11:54:45;99136.09;;;20.94;29.85
19150;BME280;9707;49.158;8.632;2023-03-26T11:57:21;99125.28;;;20.94;29.71
19150;BME280;9707;49.158;8.632;2023-03-26T11:59:54;99121.56;;;20.95;29.51
19150;BME280;9707;49.158;8.632;2023-03-26T12:02:29;99120.41;;;20.97;29.47
19150;BME280;9707;49.158;8.632;2023-03-26T12:05:19;99120.25;;;20.99;29.37
19150;BME280;9707;49.158;8.632;2023-03-26T12:07:49;99111.97;;;21.00;29.63
19150;BME280;9707;49.158;8.632;2023-03-26T12:10:39;99119.38;;;20.98;28.38
19150;BME280;9707;49.158;8.632;2023-03-26T12:16:10;99100.63;;;20.97;28.25
19150;BME280;9707;49.158;8.632;2023-03-26T12:18:36;99101.44;;;20.97;27.57
19150;BME280;9707;49.158;8.632;2023-03-26T12:21:15;99107.72;;;20.98;27.84
19150;BME280;9707;49.158;8.632;2023-03-26T12:26:17;99097.97;;;21.05;27.66
19150;BME280;9707;49.158;8.632;2023-03-26T12:28:45;99105.78;;;21.08;27.31
19150;BME280;9707;49.158;8.632;2023-03-26T12:31:12;99101.06;;;21.10;27.50
19150;BME280;9707;49.158;8.632;2023-03-26T12:33:42;99093.66;;;21.12;27.05
19150;BME280;9707;49.158;8.632;2023-03-26T12:36:24;99078.94;;;21.14;27.10
19150;BME280;9707;49.158;8.632;2023-03-26T12:38:52;99079.78;;;21.15;26.95
19150;BME280;9707;49.158;8.632;2023-03-26T12:41:20;99080.50;;;21.17;27.43
19150;BME280;9707;49.158;8.632;2023-03-26T12:44:14;99078.47;;;21.19;27.43
19150;BME280;9707;49.158;8.632;2023-03-26T12:46:45;99079.13;;;21.21;27.72
19150;BME280;9707;49.158;8.632;2023-03-26T12:49:11;99079.84;;;21.23;27.67
19150;BME280;9707;49.158;8.632;2023-03-26T12:51:47;99068.69;;;21.26;27.78
19150;BME280;9707;49.158;8.632;2023-03-26T12:54:29;99062.25;;;21.27;27.97
19150;BME280;9707;49.158;8.632;2023-03-26T13:00:05;99052.97;;;21.29;28.27
19150;BME280;9707;49.158;8.632;2023-03-26T13:15:58;99052.25;;;21.45;27.38
19150;BME280;9707;49.158;8.632;2023-03-26T13:18:43;99047.69;;;21.45;27.64
19150;BME280;9707;49.158;8.632;2023-03-26T13:23:48;99043.31;;;21.52;27.81
19150;BME280;9707;49.158;8.632;2023-03-26T13:26:40;99043.00;;;21.55;27.48
19150;BME280;9707;49.158;8.632;2023-03-26T13:31:48;99026.41;;;21.58;27.08
19150;BME280;9707;49.158;8.632;2023-03-26T13:40:19;99027.13;;;21.60;27.13
19150;BME280;9707;49.158;8.632;2023-03-26T13:48:41;99018.97;;;21.60;27.37
19150;BME280;9707;49.158;8.632;2023-03-26T13:51:17;99023.03;;;21.64;27.01
19150;BME280;9707;49.158;8.632;2023-03-26T13:53:51;99012.06;;;21.66;26.91
19150;BME280;9707;49.158;8.632;2023-03-26T13:56:24;99018.03;;;21.69;27.09
19150;BME280;9707;49.158;8.632;2023-03-26T14:01:41;99022.47;;;21.70;26.83
19150;BME280;9707;49.158;8.632;2023-03-26T14:06:59;99031.56;;;21.69;27.00
19150;BME280;9707;49.158;8.632;2023-03-26T14:09:31;99035.16;;;21.70;26.73
19150;BME280;9707;49.158;8.632;2023-03-26T14:12:27;99036.16;;;21.69;26.64
19150;BME280;9707;49.158;8.632;2023-03-26T14:15:04;99053.41;;;21.68;26.79
19150;BME280;9707;49.158;8.632;2023-03-26T14:25:53;99091.59;;;21.57;28.05
19150;BME280;9707;49.158;8.632;2023-03-26T14:34:26;99126.69;;;21.41;30.17
19150;BME280;9707;49.158;8.632;2023-03-26T14:50:57;99144.22;;;21.29;32.57
19150;BME280;9707;49.158;8.632;2023-03-26T14:53:31;99138.09;;;21.27;33.08
19150;BME280;9707;49.158;8.632;2023-03-26T15:07:28;99132.91;;;21.16;33.82
19150;BME280;9707;49.158;8.632;2023-03-26T15:16:34;99106.47;;;21.10;33.77
19150;BME280;9707;49.158;8.632;2023-03-26T15:22:27;99109.03;;;21.11;33.70
19150;BME280;9707;49.158;8.632;2023-03-26T15:25:20;99107.34;;;21.10;33.38
19150;BME280;9707;49.158;8.632;2023-03-26T15:31:10;99110.50;;;21.06;33.13
19150;BME280;9707;49.158;8.632;2023-03-26T15:37:11;99109.97;;;21.02;33.56
19150;BME280;9707;49.158;8.632;2023-03-26T15:42:54;99120.25;;;20.99;33.94
19150;BME280;9707;49.158;8.632;2023-03-26T15:59:45;99137.72;;;20.87;34.34
19150;BME280;9707;49.158;8.632;2023-03-26T16:02:42;99136.84;;;20.86;34.48
19150;BME280;9707;49.158;8.632;2023-03-26T16:05:19;99129.03;;;20.83;34.18
19150;BME280;9707;49.158;8.632;2023-03-26T16:10:56;99135.19;;;20.76;33.97
19150;BME280;9707;49.158;8.632;2023-03-26T16:13:31;99130.13;;;20.73;34.18
19150;BME280;9707;49.158;8.632;2023-03-26T16:16:16;99142.94;;;20.71;34.59
19150;BME280;9707;49.158;8.632;2023-03-26T16:18:57;99145.63;;;20.71;34.43
19150;BME280;9707;49.158;8.632;2023-03-26T16:21:53;99140.53;;;20.68;34.42
19150;BME280;9707;49.158;8.632;2023-03-26T16:24:32;99152.38;;;20.67;34.47
19150;BME280;9707;49.158;8.632;2023-03-26T16:29:30;99165.03;;;20.66;34.22
19150;BME280;9707;49.158;8.632;2023-03-26T16:32:44;99163.34;;;20.65;34.05
19150;BME280;9707;49.158;8.632;2023-03-26T16:43:16;99184.06;;;20.57;34.19
19150;BME280;9707;49.158;8.632;2023-03-26T16:48:39;99186.34;;;20.52;34.29
19150;BME280;9707;49.158;8.632;2023-03-26T16:54:18;99186.97;;;20.46;34.13
19150;BME280;9707;49.158;8.632;2023-03-26T16:56:54;99187.25;;;20.43;34.46
19150;BME280;9707;49.158;8.632;2023-03-26T17:10:43;99185.97;;;20.37;34.60
19150;BME280;9707;49.158;8.632;2023-03-26T17:16:48;99197.81;;;20.36;34.71
19150;BME280;9707;49.158;8.632;2023-03-26T17:25:20;99191.44;;;20.28;34.58
19150;BME280;9707;49.158;8.632;2023-03-26T17:31:34;99181.63;;;20.27;34.93
19150;BME280;9707;49.158;8.632;2023-03-26T17:33:36;99184.34;;;20.27;34.83
19150;BME280;9707;49.158;8.632;2023-03-26T17:41:03;99176.22;;;20.27;34.85
19150;BME280;9707;49.158;8.632;2023-03-26T17:43:41;99186.19;;;20.26;34.86
19150;BME280;9707;49.158;8.632;2023-03-26T17:48:55;99177.53;;;20.23;34.81
19150;BME280;9707;49.158;8.632;2023-03-26T17:51:33;99179.34;;;20.22;35.02
19150;BME280;9707;49.158;8.632;2023-03-26T17:54:01;99175.81;;;20.22;34.81
19150;BME280;9707;49.158;8.632;2023-03-26T17:56:30;99174.13;;;20.21;34.91
19150;BME280;9707;49.158;8.632;2023-03-26T17:58:58;99170.56;;;20.20;34.89
19150;BME280;9707;49.158;8.632;2023-03-26T18:01:31;99166.03;;;20.21;34.83
19150;BME280;9707;49.158;8.632;2023-03-26T18:04:00;99159.75;;;20.20;34.80